Terminal Aerodrome Forecast
Issued by NWS Sterling, VA

Current Version | Previous Version | Text Only | Print | Product List | Glossary Off
Versions: 1 2 3 4 5 6 7 8 9 10 11 12 13 14 15 16 17 18 19 20 21 22 23 24 25 26 27

000
FTUS41 KLWX 301400 AAA
TAFIAD
TAF AMD
KIAD 301455Z 3015/3118 17007KT P6SM OVC025
     FM301600 17008KT P6SM BKN035
     FM310900 17006KT 5SM BR BKN080
     FM311200 19006KT 3SM BR BKN090
     FM311300 20007KT P6SM BKN080=

USA.gov is the U.S. government's official web portal to all federal, state and local government web resources and services.